Terminal Aerodrome Forecast
Issued by NWS

Home | Current Version | Previous Version | Text Only | Print | Product List | Glossary On
Versions: 1 2 3 4 5 6 7 8 9 10 11 12 13 14 15 16 17 18 19 20 21
000
FTUS41 KGYX 180935 AAE
TAFAUG
TAF AMD
KAUG 180935Z 1810/1906 02009KT 2SM -SN BR OVC035
     FM181700 05009KT 4SM -SHSN BR BKN025 OVC040
     FM182300 05007KT 4SM BR OVC019 PROB30 1823/1824 1 1/2SM -SN BR
      OVC015=

USA.gov is the U.S. government's official web portal to all federal, state and local government web resources and services.